EZY1480 EGTE-EGPH
Flight info
| Callsign | EZY1480 |
|---|---|
| Flight time | N/A |
| Altitude | 15000 |
| Route | TIVER N92 DAWLY/N0358F140 N864 AVTIC N38 NOKIN UP16 RIBEL N601 ABEVI/N0400F220 N601 INPIP |
| Aircraft | A20N/M-SDE2E3FGHIRWXY/LB1 |
Departure
| Time | N/A |
|---|---|
| Airport | Exeter International Airport (EGTE) |
Arrival
| Time | 2026-05-04 14:55 |
|---|---|
| Airport | Edinburgh Airport (EGPH) |
| Time | Latitude | Longitude | Altitude | Speed | Heading |
|---|---|---|---|---|---|
| 2026-05-04 14:09 | 52.02796 | -3.18609 | 24018 ft | 438 kts | 4° |
| 2026-05-04 14:10 | 52.09145 | -3.18131 | 24023 ft | 438 kts | 4° |
| 2026-05-04 14:10 | 52.12211 | -3.17895 | 24016 ft | 438 kts | 4° |
| 2026-05-04 14:10 | 52.15286 | -3.17660 | 24014 ft | 438 kts | 4° |
| 2026-05-04 14:10 | 52.18341 | -3.17423 | 24019 ft | 439 kts | 4° |
| 2026-05-04 14:11 | 52.21400 | -3.17185 | 24021 ft | 440 kts | 4° |
| 2026-05-04 14:11 | 52.27494 | -3.16714 | 24021 ft | 438 kts | 4° |
| 2026-05-04 14:11 | 52.30538 | -3.16480 | 24017 ft | 438 kts | 5° |
| 2026-05-04 14:12 | 52.33590 | -3.16246 | 24018 ft | 436 kts | 5° |
| 2026-05-04 14:12 | 52.36621 | -3.16009 | 24020 ft | 435 kts | 5° |
| 2026-05-04 14:12 | 52.42644 | -3.15539 | 24019 ft | 435 kts | 5° |
| 2026-05-04 14:13 | 52.45680 | -3.15304 | 24021 ft | 434 kts | 5° |
| 2026-05-04 14:13 | 52.48692 | -3.15069 | 24022 ft | 434 kts | 5° |
| 2026-05-04 14:13 | 52.51705 | -3.14835 | 24020 ft | 434 kts | 5° |
| 2026-05-04 14:13 | 52.54720 | -3.14601 | 24024 ft | 433 kts | 5° |
| 2026-05-04 14:14 | 52.57716 | -3.14367 | 24023 ft | 433 kts | 5° |
| 2026-05-04 14:14 | 52.63743 | -3.13896 | 24025 ft | 429 kts | 5° |
| 2026-05-04 14:14 | 52.66721 | -3.13661 | 24024 ft | 429 kts | 5° |
| 2026-05-04 14:15 | 52.72523 | -3.12155 | 24027 ft | 423 kts | 18° |
| 2026-05-04 14:15 | 52.77957 | -3.08550 | 24026 ft | 420 kts | 27° |
| 2026-05-04 14:16 | 52.83220 | -3.04379 | 24028 ft | 419 kts | 28° |
| 2026-05-04 14:16 | 52.85846 | -3.02304 | 24028 ft | 419 kts | 27° |
| 2026-05-04 14:17 | 52.91182 | -2.98375 | 24031 ft | 419 kts | 24° |
| 2026-05-04 14:17 | 52.93894 | -2.96676 | 24036 ft | 418 kts | 22° |
| 2026-05-04 14:17 | 52.99341 | -2.93365 | 24042 ft | 418 kts | 22° |
| 2026-05-04 14:18 | 53.02060 | -2.91709 | 24037 ft | 418 kts | 22° |
| 2026-05-04 14:18 | 53.07523 | -2.88359 | 24035 ft | 417 kts | 22° |
| 2026-05-04 14:19 | 53.12929 | -2.85021 | 24046 ft | 417 kts | 22° |
| 2026-05-04 14:19 | 53.15669 | -2.83326 | 24045 ft | 417 kts | 22° |
| 2026-05-04 14:19 | 53.18388 | -2.81640 | 24050 ft | 417 kts | 22° |
| 2026-05-04 14:19 | 53.21099 | -2.79957 | 24049 ft | 418 kts | 22° |
| 2026-05-04 14:20 | 53.23812 | -2.78274 | 24041 ft | 418 kts | 22° |
| 2026-05-04 14:20 | 53.26539 | -2.76578 | 24044 ft | 417 kts | 22° |
| 2026-05-04 14:20 | 53.29252 | -2.74888 | 24045 ft | 418 kts | 22° |
| 2026-05-04 14:21 | 53.34713 | -2.71482 | 24039 ft | 417 kts | 21° |
| 2026-05-04 14:21 | 53.37426 | -2.69783 | 24044 ft | 418 kts | 21° |
| 2026-05-04 14:21 | 53.40127 | -2.68092 | 24047 ft | 418 kts | 21° |
| 2026-05-04 14:21 | 53.42851 | -2.66385 | 24049 ft | 418 kts | 21° |
| 2026-05-04 14:22 | 53.45564 | -2.64681 | 24050 ft | 418 kts | 21° |
| 2026-05-04 14:22 | 53.48289 | -2.62967 | 24043 ft | 418 kts | 21° |
| 2026-05-04 14:22 | 53.50995 | -2.61264 | 24038 ft | 418 kts | 21° |
| 2026-05-04 14:22 | 53.53717 | -2.59546 | 24037 ft | 418 kts | 21° |
| 2026-05-04 14:23 | 53.59148 | -2.56116 | 24029 ft | 419 kts | 21° |
| 2026-05-04 14:23 | 53.61874 | -2.54389 | 24034 ft | 419 kts | 21° |
| 2026-05-04 14:23 | 53.64591 | -2.52666 | 24036 ft | 418 kts | 21° |
| 2026-05-04 14:24 | 53.67326 | -2.50929 | 24034 ft | 419 kts | 21° |
| 2026-05-04 14:24 | 53.70054 | -2.49194 | 24034 ft | 418 kts | 21° |
| 2026-05-04 14:24 | 53.72742 | -2.47481 | 24029 ft | 418 kts | 21° |
| 2026-05-04 14:24 | 53.75477 | -2.45736 | 24025 ft | 418 kts | 21° |
| 2026-05-04 14:25 | 53.78183 | -2.44007 | 24025 ft | 418 kts | 21° |
| 2026-05-04 14:25 | 53.83623 | -2.40529 | 24019 ft | 418 kts | 21° |
| 2026-05-04 14:25 | 53.86355 | -2.38778 | 24024 ft | 419 kts | 21° |
| 2026-05-04 14:26 | 53.89080 | -2.37030 | 24015 ft | 420 kts | 21° |
| 2026-05-04 14:26 | 53.91826 | -2.35265 | 24010 ft | 420 kts | 21° |
| 2026-05-04 14:26 | 53.94549 | -2.33511 | 24012 ft | 419 kts | 21° |
| 2026-05-04 14:26 | 53.97307 | -2.31741 | 24017 ft | 419 kts | 20° |
| 2026-05-04 14:27 | 54.00121 | -2.30585 | 24015 ft | 421 kts | 7° |
| 2026-05-04 14:27 | 54.03079 | -2.30618 | 24011 ft | 422 kts | 354° |
| 2026-05-04 14:27 | 54.05925 | -2.31824 | 24015 ft | 424 kts | 341° |
| 2026-05-04 14:27 | 54.08657 | -2.33673 | 24019 ft | 424 kts | 339° |
| 2026-05-04 14:28 | 54.11370 | -2.35612 | 24017 ft | 424 kts | 339° |
| 2026-05-04 14:28 | 54.14099 | -2.37559 | 24014 ft | 424 kts | 339° |
| 2026-05-04 14:28 | 54.16844 | -2.39491 | 24008 ft | 425 kts | 339° |
| 2026-05-04 14:28 | 54.19593 | -2.41403 | 24004 ft | 425 kts | 339° |
| 2026-05-04 14:29 | 54.25055 | -2.45198 | 24000 ft | 425 kts | 339° |
| 2026-05-04 14:29 | 54.30559 | -2.49038 | 23997 ft | 425 kts | 339° |
| 2026-05-04 14:30 | 54.33300 | -2.50955 | 23998 ft | 425 kts | 339° |
| 2026-05-04 14:30 | 54.36004 | -2.52849 | 24001 ft | 425 kts | 339° |
| 2026-05-04 14:30 | 54.41476 | -2.56695 | 23998 ft | 424 kts | 339° |
| 2026-05-04 14:31 | 54.44209 | -2.58618 | 24002 ft | 424 kts | 339° |
| 2026-05-04 14:31 | 54.49659 | -2.62464 | 24003 ft | 424 kts | 339° |
| 2026-05-04 14:32 | 54.55136 | -2.66335 | 24002 ft | 425 kts | 338° |
| 2026-05-04 14:32 | 54.57882 | -2.68281 | 23995 ft | 424 kts | 338° |
| 2026-05-04 14:32 | 54.60604 | -2.70214 | 24002 ft | 424 kts | 338° |
| 2026-05-04 14:32 | 54.63344 | -2.72166 | 24000 ft | 424 kts | 338° |
| 2026-05-04 14:33 | 54.66041 | -2.74088 | 24001 ft | 424 kts | 338° |
| 2026-05-04 14:33 | 54.68778 | -2.76042 | 24006 ft | 424 kts | 338° |
| 2026-05-04 14:33 | 54.71498 | -2.77986 | 24002 ft | 424 kts | 338° |
| 2026-05-04 14:33 | 54.74247 | -2.79949 | 24006 ft | 424 kts | 338° |
| 2026-05-04 14:34 | 54.76979 | -2.81906 | 24007 ft | 424 kts | 338° |
| 2026-05-04 14:34 | 54.79702 | -2.83859 | 24006 ft | 425 kts | 338° |
| 2026-05-04 14:34 | 54.82423 | -2.85817 | 24006 ft | 425 kts | 338° |
| 2026-05-04 14:34 | 54.85160 | -2.87788 | 24005 ft | 425 kts | 338° |
| 2026-05-04 14:35 | 54.87876 | -2.89746 | 24004 ft | 425 kts | 338° |
| 2026-05-04 14:35 | 54.90608 | -2.91715 | 24008 ft | 425 kts | 338° |
| 2026-05-04 14:35 | 54.93344 | -2.93690 | 24008 ft | 424 kts | 338° |
| 2026-05-04 14:35 | 54.96063 | -2.95655 | 24011 ft | 425 kts | 338° |
| 2026-05-04 14:36 | 54.98809 | -2.97645 | 23759 ft | 426 kts | 338° |
| 2026-05-04 14:36 | 55.01532 | -2.99621 | 23009 ft | 425 kts | 338° |
| 2026-05-04 14:36 | 55.04223 | -3.01576 | 22363 ft | 421 kts | 338° |
| 2026-05-04 14:36 | 55.06922 | -3.03542 | 21793 ft | 415 kts | 337° |
| 2026-05-04 14:37 | 55.09547 | -3.05460 | 21360 ft | 405 kts | 337° |
| 2026-05-04 14:37 | 55.12106 | -3.07333 | 20879 ft | 397 kts | 337° |
| 2026-05-04 14:37 | 55.14641 | -3.09188 | 20372 ft | 391 kts | 337° |
| 2026-05-04 14:37 | 55.17096 | -3.10985 | 20066 ft | 379 kts | 337° |
| 2026-05-04 14:38 | 55.19477 | -3.12731 | 20014 ft | 361 kts | 337° |
| 2026-05-04 14:38 | 55.21763 | -3.14410 | 19633 ft | 354 kts | 337° |
| 2026-05-04 14:38 | 55.24018 | -3.16066 | 19218 ft | 349 kts | 336° |
| 2026-05-04 14:38 | 55.26237 | -3.17700 | 18739 ft | 339 kts | 336° |
| 2026-05-04 14:39 | 55.28360 | -3.19247 | 18112 ft | 329 kts | 339° |
| 2026-05-04 14:39 | 55.30541 | -3.20124 | 17599 ft | 319 kts | 354° |
| 2026-05-04 14:39 | 55.32718 | -3.20041 | 16981 ft | 312 kts | 2° |
| 2026-05-04 14:40 | 55.36923 | -3.19355 | 15878 ft | 294 kts | 2° |
| 2026-05-04 14:40 | 55.38926 | -3.19020 | 15322 ft | 287 kts | 2° |
| 2026-05-04 14:40 | 55.40884 | -3.18701 | 14762 ft | 281 kts | 2° |
| 2026-05-04 14:40 | 55.42802 | -3.18397 | 14175 ft | 277 kts | 2° |
| 2026-05-04 14:41 | 55.44684 | -3.18099 | 13650 ft | 271 kts | 2° |
| 2026-05-04 14:41 | 55.46534 | -3.17805 | 13166 ft | 265 kts | 2° |
| 2026-05-04 14:41 | 55.50161 | -3.17237 | 12240 ft | 262 kts | 2° |
| 2026-05-04 14:42 | 55.53829 | -3.16666 | 11321 ft | 268 kts | 2° |
| 2026-05-04 14:42 | 55.55682 | -3.16375 | 10862 ft | 270 kts | 2° |
| 2026-05-04 14:42 | 55.57547 | -3.16081 | 10522 ft | 267 kts | 2° |
| 2026-05-04 14:43 | 55.59360 | -3.15794 | 10174 ft | 266 kts | 2° |
| 2026-05-04 14:43 | 55.61214 | -3.15503 | 9758 ft | 266 kts | 2° |
| 2026-05-04 14:43 | 55.63065 | -3.15209 | 9457 ft | 262 kts | 2° |
| 2026-05-04 14:43 | 55.64849 | -3.14926 | 9171 ft | 258 kts | 2° |
| 2026-05-04 14:44 | 55.66634 | -3.14644 | 8862 ft | 255 kts | 2° |
| 2026-05-04 14:44 | 55.68381 | -3.14367 | 8523 ft | 253 kts | 2° |
| 2026-05-04 14:44 | 55.70142 | -3.14088 | 8173 ft | 252 kts | 2° |
| 2026-05-04 14:44 | 55.71869 | -3.13797 | 7823 ft | 251 kts | 4° |
| 2026-05-04 14:45 | 55.73605 | -3.13386 | 7481 ft | 250 kts | 5° |
| 2026-05-04 14:45 | 55.75316 | -3.12955 | 7144 ft | 248 kts | 5° |
| 2026-05-04 14:45 | 55.76999 | -3.12527 | 7030 ft | 247 kts | 5° |
| 2026-05-04 14:45 | 55.78714 | -3.12093 | 6991 ft | 248 kts | 5° |
| 2026-05-04 14:46 | 55.80410 | -3.11666 | 6769 ft | 250 kts | 5° |
| 2026-05-04 14:46 | 55.82129 | -3.11234 | 6428 ft | 249 kts | 5° |
| 2026-05-04 14:46 | 55.83848 | -3.10799 | 6111 ft | 247 kts | 5° |
| 2026-05-04 14:46 | 55.85525 | -3.10377 | 5815 ft | 245 kts | 5° |
| 2026-05-04 14:47 | 55.87213 | -3.09950 | 5513 ft | 242 kts | 5° |
| 2026-05-04 14:47 | 55.88866 | -3.09533 | 5220 ft | 240 kts | 5° |
| 2026-05-04 14:47 | 55.90503 | -3.09119 | 4930 ft | 238 kts | 5° |
| 2026-05-04 14:47 | 55.92143 | -3.08705 | 4641 ft | 236 kts | 5° |
| 2026-05-04 14:48 | 55.93776 | -3.08293 | 4354 ft | 234 kts | 5° |
| 2026-05-04 14:48 | 55.95393 | -3.07885 | 4074 ft | 239 kts | 5° |
| 2026-05-04 14:48 | 55.97044 | -3.07469 | 3782 ft | 239 kts | 5° |
| 2026-05-04 14:48 | 55.98686 | -3.07053 | 3494 ft | 239 kts | 5° |
| 2026-05-04 14:49 | 56.00346 | -3.06632 | 3206 ft | 239 kts | 5° |
| 2026-05-04 14:49 | 56.01967 | -3.06230 | 2977 ft | 234 kts | 2° |
| 2026-05-04 14:49 | 56.03473 | -3.06613 | 2923 ft | 211 kts | 326° |
| 2026-05-04 14:49 | 56.04329 | -3.08503 | 2915 ft | 188 kts | 281° |
| 2026-05-04 14:50 | 56.04138 | -3.10683 | 2939 ft | 181 kts | 244° |
| 2026-05-04 14:50 | 56.03486 | -3.12603 | 2972 ft | 179 kts | 239° |
| 2026-05-04 14:50 | 56.02819 | -3.14364 | 2870 ft | 165 kts | 239° |
| 2026-05-04 14:50 | 56.02209 | -3.16032 | 2622 ft | 154 kts | 241° |
| 2026-05-04 14:51 | 56.01659 | -3.17599 | 2398 ft | 144 kts | 242° |
| 2026-05-04 14:51 | 56.01158 | -3.19059 | 2222 ft | 131 kts | 243° |
| 2026-05-04 14:51 | 56.00709 | -3.20380 | 2037 ft | 121 kts | 243° |
| 2026-05-04 14:51 | 56.00279 | -3.21657 | 1884 ft | 120 kts | 243° |
| 2026-05-04 14:52 | 55.99845 | -3.22941 | 1735 ft | 120 kts | 243° |
| 2026-05-04 14:52 | 55.99417 | -3.24207 | 1588 ft | 120 kts | 242° |
| 2026-05-04 14:52 | 55.98986 | -3.25482 | 1436 ft | 119 kts | 242° |
| 2026-05-04 14:52 | 55.98555 | -3.26750 | 1278 ft | 120 kts | 244° |
| 2026-05-04 14:53 | 55.98126 | -3.28057 | 1129 ft | 120 kts | 241° |
| 2026-05-04 14:53 | 55.97686 | -3.29314 | 955 ft | 120 kts | 242° |
| 2026-05-04 14:53 | 55.97263 | -3.30581 | 815 ft | 119 kts | 240° |
| 2026-05-04 14:53 | 55.96827 | -3.31852 | 640 ft | 119 kts | 241° |
| 2026-05-04 14:54 | 55.96387 | -3.33136 | 464 ft | 122 kts | 243° |
| 2026-05-04 14:54 | 55.95965 | -3.34414 | 314 ft | 120 kts | 238° |
| 2026-05-04 14:54 | 55.95528 | -3.35685 | 153 ft | 118 kts | 239° |
| 2026-05-04 14:54 | 55.95129 | -3.36867 | 107 ft | 92 kts | 238° |
| 2026-05-04 14:55 | 55.94872 | -3.37628 | 107 ft | 59 kts | 239° |
| 2026-05-04 14:55 | 55.94738 | -3.38019 | 109 ft | 13 kts | 230° |
| 2026-05-04 14:55 | 55.94657 | -3.38017 | 109 ft | 13 kts | 155° |
| 2026-05-04 14:55 | 55.94594 | -3.37902 | 109 ft | 14 kts | 86° |
| 2026-05-04 14:56 | 55.94640 | -3.37738 | 108 ft | 15 kts | 59° |
| 2026-05-04 14:56 | 55.94702 | -3.37554 | 107 ft | 19 kts | 59° |
| 2026-05-04 14:56 | 55.94780 | -3.37330 | 107 ft | 22 kts | 60° |
| 2026-05-04 14:56 | 55.94867 | -3.37073 | 107 ft | 25 kts | 58° |
| 2026-05-04 14:57 | 55.94955 | -3.36810 | 107 ft | 24 kts | 59° |
| 2026-05-04 14:57 | 55.95043 | -3.36548 | 107 ft | 24 kts | 59° |
| 2026-05-04 14:57 | 55.95129 | -3.36288 | 107 ft | 23 kts | 71° |
| 2026-05-04 14:57 | 55.95095 | -3.36014 | 107 ft | 23 kts | 111° |
| 2026-05-04 14:58 | 55.95036 | -3.35846 | 108 ft | 7 kts | 156° |
| 2026-05-04 14:58 | 55.94991 | -3.35849 | 108 ft | 7 kts | 194° |
| 2026-05-04 14:58 | 55.94956 | -3.35893 | 108 ft | 5 kts | 245° |
| 2026-05-04 14:58 | 55.94947 | -3.35942 | 108 ft | 6 kts | 254° |
| 2026-05-04 14:59 | 55.94941 | -3.35977 | 108 ft | 0 kts | 255° |